createdAt,value
2024-03-16T00:01:21.380Z,100858.16
2024-03-16T00:03:48.005Z,100858.53
2024-03-16T00:06:14.572Z,100850.72
2024-03-16T00:08:41.238Z,100853.84
2024-03-16T00:11:07.991Z,100860.50
2024-03-16T00:13:35.627Z,100860.91
2024-03-16T00:16:02.312Z,100858.56
2024-03-16T00:18:28.977Z,100863.28
2024-03-16T00:20:56.399Z,100858.56
2024-03-16T00:23:23.018Z,100862.13
2024-03-16T00:25:49.651Z,100856.22
2024-03-16T00:28:17.282Z,100869.94
2024-03-16T00:30:44.404Z,100872.31
2024-03-16T00:33:11.173Z,100866.44
2024-03-16T00:35:37.669Z,100869.19
2024-03-16T00:38:04.371Z,100869.59
2024-03-16T00:40:31.126Z,100871.56
2024-03-16T00:42:57.934Z,100872.75
2024-03-16T00:45:24.706Z,100877.03
2024-03-16T00:47:51.348Z,100882.91
2024-03-16T00:50:18.145Z,100883.31
2024-03-16T00:52:44.769Z,100894.31
2024-03-16T00:55:11.523Z,100898.22
2024-03-16T00:57:39.119Z,100896.25
2024-03-16T01:00:09.529Z,100907.66
2024-03-16T01:02:36.280Z,100905.31
2024-03-16T01:05:02.891Z,100905.31
2024-03-16T01:07:29.501Z,100907.25
2024-03-16T01:09:56.856Z,100902.16
2024-03-16T01:12:23.620Z,100908.44
2024-03-16T01:14:50.319Z,100914.34
2024-03-16T01:17:16.988Z,100917.09
2024-03-16T01:19:45.436Z,100919.84
2024-03-16T01:22:12.301Z,100920.97
2024-03-16T01:24:38.945Z,100922.56
2024-03-16T01:27:05.676Z,100922.16
2024-03-16T01:29:33.951Z,100927.25
2024-03-16T01:32:00.770Z,100926.47
2024-03-16T01:34:27.360Z,100925.69
2024-03-16T01:36:54.226Z,100934.72
2024-03-16T01:39:20.805Z,100928.84
2024-03-16T01:41:47.384Z,100933.94
2024-03-16T01:44:14.094Z,100930.41
2024-03-16T01:46:42.613Z,100940.59
2024-03-16T01:49:10.612Z,100933.94
2024-03-16T01:51:38.775Z,100935.09
2024-03-16T01:54:06.759Z,100940.59
2024-03-16T01:56:34.158Z,100947.28
2024-03-16T01:59:01.132Z,100952.75
2024-03-16T02:01:27.860Z,100957.47
2024-03-16T02:03:55.466Z,100962.19
2024-03-16T02:06:22.165Z,100973.16
2024-03-16T02:08:48.683Z,100981.41
2024-03-16T02:11:15.407Z,100988.84
2024-03-16T02:13:41.968Z,100990.81
2024-03-16T02:16:08.637Z,101001.81
2024-03-16T02:18:35.310Z,101010.03
2024-03-16T02:21:04.480Z,101006.91
2024-03-16T02:23:32.655Z,101007.69
2024-03-16T02:25:59.719Z,101013.19
2024-03-16T02:28:26.803Z,101016.72
2024-03-16T02:30:53.635Z,101026.91
2024-03-16T02:33:21.306Z,101035.16
2024-03-16T02:35:48.086Z,101038.66
2024-03-16T02:38:15.992Z,101035.16
2024-03-16T02:40:43.635Z,101026.53
2024-03-16T02:43:10.844Z,101032.78
2024-03-16T02:45:37.601Z,101033.94
2024-03-16T02:48:06.745Z,101045.75
2024-03-16T02:50:33.431Z,101048.47
2024-03-16T02:53:00.957Z,101048.47
2024-03-16T02:55:27.522Z,101056.72
2024-03-16T02:57:55.011Z,101062.22
2024-03-16T03:00:22.891Z,101067.69
2024-03-16T03:02:49.587Z,101072.00
2024-03-16T03:05:20.833Z,101073.19
2024-03-16T03:07:47.492Z,101079.03
2024-03-16T03:10:14.094Z,101079.03
2024-03-16T03:12:40.726Z,101092.00
2024-03-16T03:15:08.040Z,101095.13
2024-03-16T03:17:34.604Z,101099.44
2024-03-16T03:20:01.242Z,101102.19
2024-03-16T03:22:28.028Z,101108.06
2024-03-16T03:24:54.628Z,101106.13
2024-03-16T03:27:21.797Z,101115.13
2024-03-16T03:29:48.368Z,101123.38
2024-03-16T03:32:15.586Z,101124.53
2024-03-16T03:34:42.114Z,101121.81
2024-03-16T03:37:09.302Z,101129.66
2024-03-16T03:39:35.941Z,101135.13
2024-03-16T03:42:02.540Z,101147.28
2024-03-16T03:47:08.636Z,101156.72
2024-03-16T03:49:36.836Z,101160.22
2024-03-16T03:52:06.613Z,101155.13
2024-03-16T03:54:34.592Z,101170.44
2024-03-16T03:57:01.452Z,101169.66
2024-03-16T03:59:28.037Z,101173.19
2024-03-16T04:01:54.712Z,101174.34
2024-03-16T04:04:21.360Z,101185.34
2024-03-16T04:06:48.200Z,101181.81
2024-03-16T04:09:15.684Z,101191.22
2024-03-16T04:11:42.649Z,101199.44
2024-03-16T04:14:09.229Z,101210.44
2024-03-16T04:16:35.947Z,101198.66
2024-03-16T04:19:02.907Z,101209.66
2024-03-16T04:21:29.842Z,101217.09
2024-03-16T04:23:56.646Z,101208.09
2024-03-16T04:26:24.192Z,101225.34
2024-03-16T04:28:51.306Z,101231.97
2024-03-16T04:31:18.460Z,101236.69
2024-03-16T04:33:45.339Z,101241.00
2024-03-16T04:36:13.803Z,101243.34
2024-03-16T04:38:40.680Z,101250.78
2024-03-16T04:41:07.250Z,101257.47
2024-03-16T04:43:36.646Z,101262.94
2024-03-16T04:46:03.383Z,101262.16
2024-03-16T04:48:29.982Z,101272.34
2024-03-16T04:50:57.347Z,101276.28
2024-03-16T04:53:24.191Z,101279.03
2024-03-16T04:55:53.500Z,101289.22
2024-03-16T04:58:20.171Z,101290.00
2024-03-16T05:00:46.928Z,101290.38
2024-03-16T05:03:14.006Z,101297.06
2024-03-16T05:05:40.660Z,101299.41
2024-03-16T05:08:08.413Z,101302.53
2024-03-16T05:10:35.172Z,101308.03
2024-03-16T05:13:01.808Z,101312.75
2024-03-16T05:15:28.593Z,101322.53
2024-03-16T05:17:55.267Z,101328.41
2024-03-16T05:20:22.830Z,101330.34
2024-03-16T05:22:49.711Z,101332.31
2024-03-16T05:25:17.431Z,101334.28
2024-03-16T05:27:44.343Z,101352.69
2024-03-16T05:30:12.692Z,101357.78
2024-03-16T05:32:39.435Z,101355.44
2024-03-16T05:35:09.073Z,101366.41
2024-03-16T05:37:36.924Z,101380.53
2024-03-16T05:40:04.326Z,101386.81
2024-03-16T05:42:32.174Z,101381.31
2024-03-16T05:45:00.463Z,101390.72
2024-03-16T05:47:27.116Z,101409.16
2024-03-16T05:49:53.734Z,101405.63
2024-03-16T05:52:20.552Z,101411.13
2024-03-16T05:54:47.146Z,101418.97
2024-03-16T05:57:13.831Z,101421.31
2024-03-16T05:59:40.542Z,101420.50
2024-03-16T06:02:07.246Z,101428.38
2024-03-16T06:04:34.310Z,101438.94
2024-03-16T06:07:01.021Z,101451.50
2024-03-16T06:09:27.627Z,101456.97
2024-03-16T06:11:54.377Z,101468.34
2024-03-16T06:14:20.984Z,101475.78
2024-03-16T06:16:47.631Z,101482.06
2024-03-16T06:19:14.331Z,101495.78
2024-03-16T06:21:41.121Z,101495.78
2024-03-16T06:24:08.774Z,101515.00
2024-03-16T06:26:38.609Z,101509.91
2024-03-16T06:29:10.052Z,101519.31
2024-03-16T06:31:39.008Z,101529.13
2024-03-16T06:34:08.778Z,101528.34
2024-03-16T06:36:36.903Z,101529.13
2024-03-16T06:39:12.781Z,101533.44
2024-03-16T06:41:39.931Z,101536.56
2024-03-16T06:44:06.562Z,101544.81
2024-03-16T06:46:33.589Z,101550.31
2024-03-16T06:49:06.570Z,101558.53
2024-03-16T06:51:34.147Z,101567.94
2024-03-16T06:54:00.838Z,101571.06
2024-03-16T06:56:27.396Z,101578.13
2024-03-16T06:58:54.070Z,101586.75
2024-03-16T07:01:22.031Z,101589.06
2024-03-16T07:03:48.997Z,101592.97
2024-03-16T07:06:15.665Z,101601.19
2024-03-16T07:08:42.269Z,101612.56
2024-03-16T07:11:09.013Z,101612.19
2024-03-16T07:13:36.511Z,101634.13
2024-03-16T07:16:03.336Z,101643.53
2024-03-16T07:18:34.284Z,101650.97
2024-03-16T07:21:00.982Z,101662.34
2024-03-16T07:23:27.958Z,101660.78
2024-03-16T07:25:54.557Z,101666.28
2024-03-16T07:28:21.164Z,101668.25
2024-03-16T07:30:47.758Z,101670.59
2024-03-16T07:33:15.191Z,101673.34
2024-03-16T07:35:42.590Z,101680.41
2024-03-16T07:38:09.496Z,101682.38
2024-03-16T07:40:36.191Z,101687.06
2024-03-16T07:43:03.127Z,101690.59
2024-03-16T07:45:30.029Z,101696.88
2024-03-16T07:47:56.793Z,101702.38
2024-03-16T07:50:23.586Z,101701.59
2024-03-16T07:52:50.327Z,101711.38
2024-03-16T07:55:17.055Z,101727.06
2024-03-16T07:57:43.839Z,101725.50
2024-03-16T08:00:12.344Z,101731.41
2024-03-16T08:02:39.316Z,101738.06
2024-03-16T08:05:06.246Z,101734.56
2024-03-16T08:07:32.942Z,101738.06
2024-03-16T08:09:59.601Z,101748.69
2024-03-16T08:12:26.670Z,101745.13
2024-03-16T08:14:53.916Z,101745.94
2024-03-16T08:17:20.860Z,101747.06
2024-03-16T08:19:47.430Z,101757.69
2024-03-16T08:22:14.329Z,101754.97
2024-03-16T08:24:41.247Z,101765.16
2024-03-16T08:27:07.849Z,101775.31
2024-03-16T08:29:34.458Z,101778.06
2024-03-16T08:32:01.052Z,101787.09
2024-03-16T08:34:27.726Z,101781.63
2024-03-16T08:36:54.437Z,101783.91
2024-03-16T08:39:21.685Z,101779.59
2024-03-16T08:41:49.285Z,101796.06
2024-03-16T08:44:15.904Z,101798.81
2024-03-16T08:46:42.528Z,101797.63
2024-03-16T08:49:09.173Z,101803.13
2024-03-16T08:51:36.197Z,101801.19
2024-03-16T08:54:03.132Z,101808.25
2024-03-16T08:56:30.015Z,101803.91
2024-03-16T08:58:57.615Z,101814.56
2024-03-16T09:01:24.755Z,101809.41
2024-03-16T09:03:51.635Z,101809.41
2024-03-16T09:06:18.392Z,101820.38
2024-03-16T09:08:45.046Z,101824.72
2024-03-16T09:11:12.615Z,101822.78
2024-03-16T09:13:39.270Z,101829.41
2024-03-16T09:16:07.448Z,101836.06
2024-03-16T09:18:35.480Z,101851.38
2024-03-16T09:21:03.828Z,101864.31
2024-03-16T09:23:31.084Z,101871.75
2024-03-16T09:25:57.979Z,101874.13
2024-03-16T09:28:24.986Z,101869.44
2024-03-16T09:30:55.017Z,101874.50
2024-03-16T09:33:23.169Z,101880.78
2024-03-16T09:35:53.542Z,101878.47
2024-03-16T09:38:20.208Z,101886.72
2024-03-16T09:40:53.168Z,101892.19
